createdAt,value
2018-12-25T00:02:00.132Z,3.40
2018-12-25T00:04:29.818Z,3.20
2018-12-25T00:07:00.066Z,3.10
2018-12-25T00:09:30.398Z,2.90
2018-12-25T00:12:00.109Z,2.67
2018-12-25T00:14:30.336Z,2.87
2018-12-25T00:17:00.026Z,3.30
2018-12-25T00:19:30.367Z,2.60
2018-12-25T00:22:00.723Z,3.00
2018-12-25T00:24:30.412Z,3.23
2018-12-25T00:27:00.666Z,2.93
2018-12-25T00:29:30.343Z,3.23
2018-12-25T00:31:59.948Z,2.70
2018-12-25T00:34:29.536Z,2.30
2018-12-25T00:36:59.791Z,3.03
2018-12-25T00:39:30.104Z,2.90
2018-12-25T00:42:00.493Z,3.27
2018-12-25T00:44:30.175Z,2.70
2018-12-25T00:47:00.434Z,2.50
2018-12-25T00:49:30.744Z,2.90
2018-12-25T00:52:00.453Z,2.40
2018-12-25T00:54:30.703Z,2.77
2018-12-25T00:57:00.391Z,2.93
2018-12-25T00:59:29.967Z,2.60
2018-12-25T01:01:59.567Z,2.93
2018-12-25T01:04:29.944Z,2.50
2018-12-25T01:06:59.632Z,2.80
2018-12-25T01:09:29.234Z,2.80
2018-12-25T01:11:58.860Z,2.60
2018-12-25T01:14:29.115Z,2.70
2018-12-25T01:16:58.792Z,2.70
2018-12-25T01:19:29.048Z,2.77
2018-12-25T01:21:58.748Z,2.70
2018-12-25T01:24:29.157Z,2.03
2018-12-25T01:26:58.824Z,2.83
2018-12-25T01:29:28.452Z,2.90
2018-12-25T01:31:58.832Z,2.87
2018-12-25T01:34:29.196Z,3.57
2018-12-25T01:36:58.915Z,3.00
2018-12-25T01:39:29.177Z,3.00
2018-12-25T01:41:59.486Z,3.00
2018-12-25T01:44:30.001Z,3.20
2018-12-25T01:47:00.444Z,3.20
2018-12-25T01:49:31.939Z,3.53
2018-12-25T01:52:01.879Z,3.37
2018-12-25T01:54:31.481Z,2.90
2018-12-25T01:57:01.080Z,3.03
2018-12-25T01:59:30.657Z,2.80
2018-12-25T02:02:00.243Z,3.40
2018-12-25T02:04:30.532Z,3.00
2018-12-25T02:07:00.212Z,2.80
2018-12-25T02:09:30.611Z,2.67
2018-12-25T02:12:00.939Z,2.80
2018-12-25T02:14:31.310Z,2.65
2018-12-25T02:17:01.633Z,2.57
2018-12-25T02:19:40.065Z,2.77
2018-12-25T02:22:03.279Z,2.80
2018-12-25T02:24:33.543Z,2.87
2018-12-25T02:27:03.220Z,2.97
2018-12-25T02:29:33.512Z,2.60
2018-12-25T02:32:03.185Z,2.37
2018-12-25T02:34:33.462Z,2.27
2018-12-25T02:37:03.137Z,2.67
2018-12-25T02:39:33.501Z,2.53
2018-12-25T02:42:03.837Z,2.37
2018-12-25T02:44:34.197Z,2.47
2018-12-25T02:47:04.553Z,2.20
2018-12-25T02:49:34.912Z,2.40
2018-12-25T02:52:05.257Z,2.20
2018-12-25T02:54:35.617Z,2.80
2018-12-25T02:57:05.962Z,2.63
2018-12-25T02:59:35.785Z,2.27
2018-12-25T03:02:05.339Z,2.47
2018-12-25T03:04:34.984Z,2.30
2018-12-25T03:07:04.581Z,2.80
2018-12-25T03:09:34.812Z,2.27
2018-12-25T03:12:05.167Z,2.13
2018-12-25T03:14:34.832Z,2.70
2018-12-25T03:17:04.440Z,2.50
2018-12-25T03:19:34.687Z,3.20
2018-12-25T03:22:05.024Z,2.63
2018-12-25T03:24:35.333Z,2.40
2018-12-25T03:27:05.049Z,2.70
2018-12-25T03:29:35.293Z,2.77
2018-12-25T03:32:04.981Z,3.30
2018-12-25T03:34:35.241Z,3.07
2018-12-25T03:37:05.601Z,3.90
2018-12-25T03:39:35.921Z,2.97
2018-12-25T03:42:06.361Z,2.93
2018-12-25T03:44:36.046Z,5.10
2018-12-25T03:47:06.311Z,3.40
2018-12-25T03:49:36.674Z,3.67
2018-12-25T03:52:07.015Z,2.73
2018-12-25T03:54:37.336Z,2.87
2018-12-25T03:57:07.110Z,3.90
2018-12-25T03:59:37.350Z,3.67
2018-12-25T04:02:07.056Z,3.57
2018-12-25T04:04:37.297Z,2.77
2018-12-25T04:07:07.009Z,2.90
2018-12-25T04:09:37.248Z,3.40
2018-12-25T04:12:06.941Z,3.10
2018-12-25T04:14:37.174Z,3.53
2018-12-25T04:17:06.848Z,3.40
2018-12-25T04:19:37.106Z,3.53
2018-12-25T04:22:07.445Z,3.00
2018-12-25T04:24:40.625Z,4.10
2018-12-25T04:27:10.331Z,3.90
2018-12-25T04:29:39.951Z,3.90
2018-12-25T04:32:09.583Z,3.73
2018-12-25T04:34:39.180Z,3.77
2018-12-25T04:37:09.427Z,4.23
2018-12-25T04:39:39.100Z,4.70
2018-12-25T04:42:08.712Z,4.77
2018-12-25T04:44:38.979Z,4.97
2018-12-25T04:47:08.649Z,3.93
2018-12-25T04:49:38.940Z,3.57
2018-12-25T04:52:09.269Z,5.17
2018-12-25T04:54:39.636Z,5.00
2018-12-25T04:57:09.292Z,3.77
2018-12-25T04:59:38.885Z,3.70
2018-12-25T05:02:08.468Z,4.10
2018-12-25T05:04:38.048Z,4.50
2018-12-25T05:07:07.660Z,5.30
2018-12-25T05:09:37.897Z,5.07
2018-12-25T05:12:07.583Z,4.30
2018-12-25T05:14:37.952Z,4.77
2018-12-25T05:17:08.304Z,4.13
2018-12-25T05:19:38.630Z,4.47
2018-12-25T05:22:08.324Z,4.00
2018-12-25T05:24:38.561Z,5.00
2018-12-25T05:27:08.284Z,4.67
2018-12-25T05:29:38.647Z,4.20
2018-12-25T05:32:08.992Z,7.30
2018-12-25T05:34:38.677Z,4.80
2018-12-25T05:37:08.312Z,4.80
2018-12-25T05:39:38.574Z,5.47
2018-12-25T05:42:08.919Z,4.80
2018-12-25T05:44:38.615Z,5.73
2018-12-25T05:47:08.876Z,6.00
2018-12-25T05:49:38.576Z,6.30
2018-12-25T05:52:08.808Z,6.80
2018-12-25T05:54:39.161Z,6.13
2018-12-25T05:57:09.510Z,5.33
2018-12-25T05:59:39.237Z,6.13
2018-12-25T06:02:08.824Z,7.07
2018-12-25T06:04:39.080Z,6.97
2018-12-25T06:07:08.759Z,7.83
2018-12-25T06:09:38.336Z,7.10
2018-12-25T06:12:07.969Z,6.83
2018-12-25T06:14:38.196Z,7.90
2018-12-25T06:17:08.520Z,8.50
2018-12-25T06:19:38.876Z,7.53
2018-12-25T06:22:08.555Z,11.53
2018-12-25T06:24:38.149Z,7.03
2018-12-25T06:27:08.421Z,7.13
2018-12-25T06:29:38.114Z,6.87
2018-12-25T06:32:08.468Z,7.07
2018-12-25T06:34:38.170Z,7.83
2018-12-25T06:37:07.787Z,7.20
2018-12-25T06:39:38.052Z,7.27
2018-12-25T06:42:08.472Z,7.67
2018-12-25T06:44:38.220Z,8.03
2018-12-25T06:47:08.568Z,8.50
2018-12-25T06:49:38.923Z,7.55
2018-12-25T06:52:09.327Z,9.33
2018-12-25T06:54:39.473Z,8.63
2018-12-25T06:57:09.875Z,7.87
2018-12-25T06:59:39.556Z,7.70
2018-12-25T07:02:09.133Z,7.97
2018-12-25T07:04:38.762Z,8.65
2018-12-25T07:07:09.013Z,6.90
2018-12-25T07:09:39.372Z,6.50
2018-12-25T07:12:09.056Z,6.40
2018-12-25T07:14:39.341Z,10.83
2018-12-25T07:17:09.815Z,11.87
2018-12-25T07:19:40.122Z,13.23
2018-12-25T07:22:09.816Z,10.37
2018-12-25T07:24:39.417Z,10.53
2018-12-25T07:27:09.682Z,9.47
2018-12-25T07:29:39.457Z,10.13
2018-12-25T07:32:09.698Z,9.70
2018-12-25T07:34:39.387Z,9.50
2018-12-25T07:37:09.660Z,8.57
2018-12-25T07:39:39.350Z,7.70
2018-12-25T07:42:09.575Z,9.03
2018-12-25T07:44:39.263Z,10.80
2018-12-25T07:47:11.257Z,8.57
2018-12-25T07:49:41.010Z,7.90
2018-12-25T07:52:10.608Z,8.70
2018-12-25T07:54:40.204Z,10.20
2018-12-25T07:57:09.839Z,9.77
2018-12-25T07:59:40.091Z,9.30
2018-12-25T08:02:09.804Z,7.20
2018-12-25T08:04:40.196Z,8.83
2018-12-25T08:07:09.900Z,8.77
2018-12-25T08:09:40.179Z,9.70
2018-12-25T08:12:09.851Z,8.37
2018-12-25T08:14:39.429Z,8.10
2018-12-25T08:17:09.697Z,7.50
2018-12-25T08:19:40.031Z,6.03
2018-12-25T08:22:09.719Z,6.43
2018-12-25T08:24:39.299Z,6.23
2018-12-25T08:27:08.892Z,5.60
2018-12-25T08:29:39.140Z,5.30
2018-12-25T08:32:09.584Z,5.70
2018-12-25T08:34:39.932Z,4.80
2018-12-25T08:37:10.324Z,4.40
2018-12-25T08:39:40.023Z,4.77
2018-12-25T08:42:10.278Z,6.37
2018-12-25T08:44:40.636Z,8.03
2018-12-25T08:47:11.704Z,5.97
2018-12-25T08:49:41.472Z,5.80
2018-12-25T08:52:11.737Z,6.63
2018-12-25T08:54:41.407Z,7.03
2018-12-25T08:57:11.651Z,6.50
2018-12-25T08:59:42.003Z,6.83
2018-12-25T09:02:12.332Z,6.63
2018-12-25T09:04:42.024Z,6.57
2018-12-25T09:07:12.271Z,6.13
2018-12-25T09:09:42.636Z,6.80
2018-12-25T09:12:12.953Z,6.90
2018-12-25T09:14:43.314Z,4.93
2018-12-25T09:17:13.648Z,5.53
2018-12-25T09:19:43.408Z,6.37
2018-12-25T09:22:12.984Z,6.90
2018-12-25T09:24:43.232Z,7.60
2018-12-25T09:27:13.576Z,5.57
2018-12-25T09:29:43.923Z,4.73
2018-12-25T09:32:13.628Z,4.40
2018-12-25T09:34:43.880Z,4.70
2018-12-25T09:37:14.266Z,5.40
2018-12-25T09:39:44.640Z,5.47
2018-12-25T09:42:14.367Z,6.83
2018-12-25T09:44:44.532Z,10.17
2018-12-25T09:47:14.247Z,7.73
2018-12-25T09:49:44.540Z,5.60
2018-12-25T09:52:14.976Z,4.13
2018-12-25T09:54:45.337Z,3.57
2018-12-25T09:57:15.701Z,3.50
2018-12-25T09:59:46.101Z,3.13
2018-12-25T10:02:16.436Z,3.80
2018-12-25T10:04:46.815Z,3.50
2018-12-25T10:07:17.138Z,3.80
2018-12-25T10:09:46.861Z,3.47
2018-12-25T10:12:16.528Z,3.33
2018-12-25T10:14:46.755Z,4.03
2018-12-25T10:17:17.101Z,3.70
2018-12-25T10:19:46.791Z,3.03
2018-12-25T10:22:17.061Z,3.00
2018-12-25T10:24:47.404Z,3.30
2018-12-25T10:27:17.116Z,2.93
2018-12-25T10:29:47.360Z,3.40
2018-12-25T10:32:17.717Z,2.70
2018-12-25T10:34:48.046Z,2.90
2018-12-25T10:37:18.391Z,2.80
2018-12-25T10:39:48.098Z,3.50
2018-12-25T10:42:18.361Z,3.07
2018-12-25T10:44:48.686Z,3.37
2018-12-25T10:47:19.292Z,3.80
2018-12-25T10:49:48.882Z,3.97
2018-12-25T10:52:19.152Z,3.80
2018-12-25T10:54:48.833Z,3.40
2018-12-25T10:57:19.159Z,3.07
2018-12-25T10:59:49.732Z,4.00
2018-12-25T11:02:20.182Z,3.50
2018-12-25T11:04:50.521Z,3.50
2018-12-25T11:07:20.872Z,3.33
2018-12-25T11:09:51.232Z,3.30
2018-12-25T11:12:20.935Z,3.30
2018-12-25T11:14:51.171Z,3.00
2018-12-25T11:17:20.873Z,2.97
2018-12-25T11:19:51.118Z,3.27
2018-12-25T11:22:20.817Z,3.50
2018-12-25T11:24:50.387Z,3.53
2018-12-25T11:27:20.018Z,3.40
2018-12-25T11:29:50.275Z,3.33
2018-12-25T11:32:20.661Z,3.23
2018-12-25T11:34:51.041Z,3.60
2018-12-25T11:37:20.715Z,3.17
2018-12-25T11:39:51.032Z,2.73
2018-12-25T11:42:21.388Z,3.00
2018-12-25T11:44:51.828Z,2.93
2018-12-25T11:47:21.502Z,3.53
2018-12-25T11:49:51.757Z,2.53
2018-12-25T11:52:28.383Z,3.10
2018-12-25T11:54:52.703Z,2.87
2018-12-25T11:57:22.936Z,2.87
2018-12-25T11:59:52.617Z,2.80
2018-12-25T12:02:22.206Z,4.13
2018-12-25T12:04:52.452Z,4.40
2018-12-25T12:07:22.896Z,4.20
2018-12-25T12:09:52.604Z,10.03
2018-12-25T12:12:22.216Z,8.17
2018-12-25T12:14:51.788Z,3.47
2018-12-25T12:17:21.415Z,4.30
2018-12-25T12:19:51.007Z,4.00
2018-12-25T12:22:20.580Z,3.80
2018-12-25T12:24:50.849Z,3.00
2018-12-25T12:27:21.195Z,2.60
2018-12-25T12:29:50.905Z,2.80
2018-12-25T12:32:21.165Z,6.43
2018-12-25T12:34:51.540Z,5.00
2018-12-25T12:37:21.213Z,3.37
2018-12-25T12:39:50.813Z,20.77
2018-12-25T12:42:21.159Z,8.87
2018-12-25T12:44:51.528Z,6.80
2018-12-25T12:47:21.864Z,1.97
2018-12-25T12:49:51.536Z,2.17
2018-12-25T12:52:21.805Z,2.50
2018-12-25T12:54:51.493Z,5.07
2018-12-25T12:57:21.821Z,2.30
2018-12-25T12:59:51.505Z,1.90
2018-12-25T13:02:21.767Z,2.60
2018-12-25T13:04:52.116Z,2.43
2018-12-25T13:07:21.786Z,2.73
2018-12-25T13:09:52.024Z,2.10
2018-12-25T13:12:21.710Z,2.27
2018-12-25T13:14:51.961Z,2.20
2018-12-25T13:17:21.636Z,2.40
2018-12-25T13:19:51.251Z,2.50
2018-12-25T13:22:21.501Z,2.80
2018-12-25T13:24:51.856Z,2.27
2018-12-25T13:27:21.640Z,2.87
2018-12-25T13:29:51.913Z,3.00
2018-12-25T13:32:22.236Z,2.13
2018-12-25T13:34:51.958Z,2.20
2018-12-25T13:37:22.213Z,2.37
2018-12-25T13:39:51.927Z,2.30
2018-12-25T13:42:22.151Z,2.20
2018-12-25T13:44:52.491Z,2.10
2018-12-25T13:47:22.868Z,2.60
2018-12-25T13:49:52.568Z,2.10
2018-12-25T13:52:22.164Z,2.30
2018-12-25T13:54:52.457Z,2.27
2018-12-25T13:57:22.142Z,2.53
2018-12-25T13:59:51.737Z,2.03
2018-12-25T14:02:21.379Z,2.70
2018-12-25T14:04:50.916Z,2.50
2018-12-25T14:07:20.524Z,2.30
2018-12-25T14:09:50.116Z,2.93
2018-12-25T14:12:20.043Z,2.00
2018-12-25T14:14:49.613Z,1.80
2018-12-25T14:17:19.944Z,3.03
2018-12-25T14:19:49.559Z,4.00
2018-12-25T14:22:20.549Z,3.23
2018-12-25T14:24:51.017Z,2.73
2018-12-25T14:27:20.711Z,3.03
2018-12-25T14:29:50.279Z,2.83
2018-12-25T14:32:19.926Z,2.57
2018-12-25T14:34:50.177Z,3.27
2018-12-25T14:37:20.580Z,2.60
2018-12-25T14:39:50.260Z,2.40
2018-12-25T14:42:20.525Z,2.40
2018-12-25T14:44:50.865Z,2.83
2018-12-25T14:47:21.196Z,2.40
2018-12-25T14:49:50.872Z,2.60
2018-12-25T14:52:20.439Z,2.57
2018-12-25T14:54:50.048Z,2.90
2018-12-25T14:57:19.723Z,2.43
2018-12-25T14:59:49.392Z,3.70
2018-12-25T15:02:19.756Z,3.33
2018-12-25T15:04:49.346Z,5.00
2018-12-25T15:07:19.695Z,4.57
2018-12-25T15:09:49.977Z,6.50
2018-12-25T15:12:20.716Z,7.00
2018-12-25T15:14:50.411Z,7.83
2018-12-25T15:17:20.020Z,7.60
2018-12-25T15:19:49.664Z,7.03
2018-12-25T15:22:20.334Z,6.30
2018-12-25T15:24:50.683Z,6.17
2018-12-25T15:27:20.363Z,3.83
2018-12-25T15:29:50.690Z,3.40
2018-12-25T15:32:21.028Z,3.10
2018-12-25T15:34:50.832Z,3.20
2018-12-25T15:37:20.432Z,1.93
2018-12-25T15:39:50.685Z,2.07
2018-12-25T15:42:21.052Z,3.30
2018-12-25T15:44:51.385Z,2.23
2018-12-25T15:47:22.032Z,2.03
2018-12-25T15:49:52.288Z,2.90
2018-12-25T15:52:21.971Z,3.00
2018-12-25T15:54:52.223Z,6.20
2018-12-25T15:57:21.925Z,3.83
2018-12-25T15:59:51.504Z,3.80
2018-12-25T16:02:21.769Z,5.77
2018-12-25T16:04:51.505Z,24.00
2018-12-25T16:07:21.749Z,14.50
2018-12-25T16:09:52.214Z,13.43
2018-12-25T16:12:21.893Z,9.60
2018-12-25T16:14:52.148Z,8.53
2018-12-25T16:17:22.472Z,7.70
2018-12-25T16:19:52.820Z,6.63
2018-12-25T16:22:22.516Z,5.03
2018-12-25T16:24:52.123Z,2.80
2018-12-25T16:27:22.376Z,3.90
2018-12-25T16:29:52.707Z,3.13
2018-12-25T16:32:22.396Z,4.10
2018-12-25T16:34:52.795Z,4.40
2018-12-25T16:37:22.492Z,3.27
2018-12-25T16:39:52.720Z,3.80
2018-12-25T16:42:22.403Z,4.87
2018-12-25T16:44:52.648Z,8.93
2018-12-25T16:47:22.359Z,4.80
2018-12-25T16:49:52.697Z,5.67
2018-12-25T16:52:22.371Z,3.10
2018-12-25T16:54:52.609Z,5.67
2018-12-25T16:57:22.314Z,4.03
2018-12-25T16:59:51.881Z,3.03
2018-12-25T17:02:22.122Z,4.67
2018-12-25T17:04:52.464Z,4.10
2018-12-25T17:07:22.136Z,5.87
2018-12-25T17:09:52.422Z,3.80
2018-12-25T17:12:22.080Z,4.43
2018-12-25T17:14:52.345Z,3.43
2018-12-25T17:17:22.021Z,3.50
2018-12-25T17:19:51.677Z,3.87
2018-12-25T17:22:21.244Z,3.40
2018-12-25T17:24:51.498Z,3.47
2018-12-25T17:27:21.849Z,3.07
2018-12-25T17:29:52.184Z,4.30
2018-12-25T17:32:21.859Z,4.30
2018-12-25T17:34:52.084Z,3.93
2018-12-25T17:37:21.807Z,5.10
2018-12-25T17:39:52.074Z,4.80
2018-12-25T17:42:21.757Z,5.80
2018-12-25T17:44:51.390Z,5.13
2018-12-25T17:47:20.998Z,6.20
2018-12-25T17:49:50.590Z,7.60
2018-12-25T17:52:20.837Z,5.93
2018-12-25T17:54:51.176Z,6.13
2018-12-25T17:57:21.516Z,6.27
2018-12-25T17:59:51.845Z,4.10
2018-12-25T18:02:21.559Z,4.07
2018-12-25T18:04:51.800Z,3.70
2018-12-25T18:07:21.500Z,3.90
2018-12-25T18:09:51.111Z,3.70
2018-12-25T18:12:20.729Z,3.07
2018-12-25T18:14:50.363Z,2.90
2018-12-25T18:17:19.996Z,3.70
2018-12-25T18:19:49.572Z,3.80
2018-12-25T18:22:20.204Z,9.50
2018-12-25T18:24:49.896Z,10.37
2018-12-25T18:27:20.040Z,6.93
2018-12-25T18:29:50.300Z,4.13
2018-12-25T18:32:20.852Z,3.07
2018-12-25T18:34:51.230Z,2.60
2018-12-25T18:37:21.583Z,2.00
2018-12-25T18:39:56.727Z,2.37
2018-12-25T18:42:26.442Z,1.90
2018-12-25T18:44:56.683Z,1.80
2018-12-25T18:47:26.411Z,1.87
2018-12-25T18:49:56.668Z,2.60
2018-12-25T18:52:27.133Z,2.97
2018-12-25T18:54:56.818Z,3.10
2018-12-25T18:57:27.096Z,3.20
2018-12-25T18:59:56.764Z,3.53
2018-12-25T19:02:26.996Z,3.77
2018-12-25T19:04:56.681Z,2.70
2018-12-25T19:07:26.926Z,3.00
2018-12-25T19:09:57.276Z,3.27
2018-12-25T19:12:26.956Z,3.33
2018-12-25T19:15:10.571Z,3.33
2018-12-25T19:17:40.268Z,3.30
2018-12-25T19:20:10.560Z,3.63
2018-12-25T19:22:40.228Z,3.97
2018-12-25T19:25:09.833Z,3.43
2018-12-25T19:27:39.476Z,3.90
2018-12-25T19:30:10.759Z,3.53
2018-12-25T19:32:43.848Z,2.80
2018-12-25T19:35:12.332Z,3.20
2018-12-25T19:37:42.684Z,3.77
2018-12-25T19:40:13.120Z,3.60
2018-12-25T19:42:43.537Z,4.47
2018-12-25T19:45:13.213Z,4.40
2018-12-25T19:47:43.497Z,3.87
2018-12-25T19:50:13.839Z,4.30
2018-12-25T19:52:43.549Z,3.23
2018-12-25T19:55:13.788Z,4.17
2018-12-25T19:57:44.299Z,4.00
2018-12-25T20:00:14.741Z,4.53
2018-12-25T20:02:49.069Z,4.80
2018-12-25T20:05:34.571Z,5.47
2018-12-25T20:08:52.072Z,5.70
2018-12-25T20:11:55.815Z,5.60
2018-12-25T20:15:17.731Z,4.60
2018-12-25T20:18:39.979Z,5.93
2018-12-25T20:21:54.352Z,4.70
2018-12-25T20:24:55.415Z,4.43
2018-12-25T20:28:18.545Z,4.00
2018-12-25T20:31:30.716Z,8.93
2018-12-25T20:34:22.308Z,7.37
2018-12-25T20:37:19.786Z,6.83
2018-12-25T20:40:35.616Z,5.30
2018-12-25T20:43:32.819Z,5.97
2018-12-25T20:46:40.260Z,5.10
2018-12-25T20:50:00.380Z,6.03
2018-12-25T20:53:23.708Z,5.63
2018-12-25T20:57:02.628Z,4.87
2018-12-25T21:00:03.494Z,4.62
2018-12-25T21:03:01.396Z,5.50
2018-12-25T21:06:28.244Z,6.07
2018-12-25T21:09:53.731Z,10.57
2018-12-25T21:13:03.929Z,7.57
2018-12-25T21:16:15.363Z,6.60
2018-12-25T21:19:29.966Z,4.70
2018-12-25T21:22:36.263Z,4.40
2018-12-25T21:25:42.253Z,4.83
2018-12-25T21:28:10.852Z,4.33
2018-12-25T21:30:41.192Z,3.90
2018-12-25T21:33:10.916Z,4.23
2018-12-25T21:35:40.506Z,4.10
2018-12-25T21:38:10.786Z,4.50
2018-12-25T21:40:40.563Z,5.80
2018-12-25T21:43:11.040Z,7.80
2018-12-25T21:45:40.708Z,5.20
2018-12-25T21:48:10.308Z,4.90
2018-12-25T21:50:40.586Z,4.60
2018-12-25T21:53:11.721Z,4.43
2018-12-25T21:55:41.439Z,4.67
2018-12-25T21:58:11.782Z,7.00
2018-12-25T22:00:42.287Z,6.97
2018-12-25T22:03:11.984Z,6.30
2018-12-25T22:05:42.239Z,4.43
2018-12-25T22:08:12.577Z,4.30
2018-12-25T22:10:42.964Z,4.60
2018-12-25T22:13:12.648Z,4.87
2018-12-25T22:15:42.927Z,4.37
2018-12-25T22:18:13.268Z,4.30
2018-12-25T22:20:43.640Z,5.30
2018-12-25T22:23:13.344Z,6.17
2018-12-25T22:25:43.774Z,5.70
2018-12-25T22:28:14.276Z,5.27
2018-12-25T22:30:43.956Z,5.17
2018-12-25T22:33:13.552Z,4.77
2018-12-25T22:35:43.165Z,5.07
2018-12-25T22:38:13.472Z,4.67
2018-12-25T22:40:43.139Z,5.10
2018-12-25T22:43:13.403Z,4.70
2018-12-25T22:45:43.092Z,4.70
2018-12-25T22:48:13.361Z,4.77
2018-12-25T22:50:43.735Z,4.63
2018-12-25T22:53:13.429Z,5.70
2018-12-25T22:55:43.682Z,4.90
2018-12-25T22:58:14.036Z,4.77
2018-12-25T23:00:44.580Z,5.03
2018-12-25T23:03:14.933Z,4.50
2018-12-25T23:05:44.598Z,5.10
2018-12-25T23:08:14.213Z,5.10
2018-12-25T23:10:44.468Z,4.87
2018-12-25T23:13:14.161Z,5.23
2018-12-25T23:15:43.733Z,5.57
2018-12-25T23:18:13.980Z,5.60
2018-12-25T23:20:43.676Z,5.73
2018-12-25T23:23:13.962Z,6.73
2018-12-25T23:25:44.693Z,6.37
2018-12-25T23:28:15.083Z,6.17
2018-12-25T23:30:45.456Z,7.07
2018-12-25T23:33:15.785Z,7.63
2018-12-25T23:35:45.479Z,7.80
2018-12-25T23:38:15.720Z,8.33
2018-12-25T23:40:46.066Z,7.90
2018-12-25T23:43:16.401Z,7.20
2018-12-25T23:45:46.088Z,7.33
2018-12-25T23:48:15.680Z,8.83
2018-12-25T23:50:45.932Z,7.07
2018-12-25T23:53:15.638Z,6.87
2018-12-25T23:55:52.960Z,7.07
2018-12-25T23:58:17.310Z,6.03
